Terminal Aerodrome Forecast
Issued by NWS Cleveland, OH

Home | Current Version | Previous Version | Text Only | Print | Product List | Glossary Off
Versions: 1 2 3 4 5 6 7 8 9 10 11 12 13 14

000
FTUS41 KCLE 181120
TAFMFD
TAF
KMFD 181120Z 1812/1912 21012KT P6SM SKC
     FM181600 22012G20KT P6SM SCT250
     FM182200 22008KT P6SM FEW250=

USA.gov is the U.S. government's official web portal to all federal, state and local government web resources and services.